Time;durP1;ratioP1;P1;durP2;ratioP2;P2;SDS_P1;SDS_P2;PMS_P1;PMS_P2;Temp;Humidity;BMP_temperature;BMP_pressure;BME280_temperature;BME280_humidity;BME280_pressure;Samples;Min_cycle;Max_cycle;Signal;HPM_P1;HPM_P2
2022/05/04 00:01:32;;;;;;;7.97;6.18;;;;;;;8.22;100.00;101278.97;5096637;28;20028;-48
2022/05/04 00:03:57;;;;;;;7.95;5.95;;;;;;;8.23;100.00;101277.97;5092700;28;20028;-51
2022/05/04 00:06:23;;;;;;;7.28;5.40;;;;;;;8.22;100.00;101282.41;5104346;28;20099;-49
2022/05/04 00:08:48;;;;;;;7.63;5.75;;;;;;;8.23;100.00;101283.25;5099621;28;20069;-46
2022/05/04 00:11:14;;;;;;;11.15;6.15;;;;;;;8.23;100.00;101277.97;5097420;28;20528;-48
2022/05/04 00:13:39;;;;;;;8.55;5.55;;;;;;;8.23;100.00;101277.97;5082642;28;20037;-49
2022/05/04 00:16:06;;;;;;;9.63;6.45;;;;;;;8.24;100.00;101282.28;5101273;28;20074;-49
2022/05/04 00:18:32;;;;;;;12.98;7.70;;;;;;;8.23;100.00;101278.78;5101832;28;20073;-46
2022/05/04 00:20:58;;;;;;;12.35;7.93;;;;;;;8.22;100.00;101273.66;5098955;28;20027;-48
2022/05/04 00:23:25;;;;;;;9.52;5.93;;;;;;;8.19;100.00;101281.91;5103269;28;20336;-52
2022/05/04 00:25:50;;;;;;;10.07;6.20;;;;;;;8.17;100.00;101274.13;5104376;28;20046;-48
2022/05/04 00:28:15;;;;;;;8.73;6.25;;;;;;;8.15;100.00;101278.75;5103049;28;20292;-49
2022/05/04 00:30:41;;;;;;;10.60;6.82;;;;;;;8.11;100.00;101271.31;5099323;28;20111;-48
2022/05/04 00:33:07;;;;;;;17.48;6.60;;;;;;;8.13;100.00;101266.66;5098696;28;20055;-46
2022/05/04 00:35:33;;;;;;;11.18;8.05;;;;;;;8.13;100.00;101274.59;5096695;28;20024;-45
2022/05/04 00:37:58;;;;;;;11.10;7.60;;;;;;;8.11;100.00;101279.22;5087243;28;20085;-49
2022/05/04 00:40:24;;;;;;;10.68;6.15;;;;;;;8.11;100.00;101284.50;5097326;28;20024;-49
2022/05/04 00:42:49;;;;;;;9.70;6.68;;;;;;;8.12;100.00;101284.34;5102073;28;20031;-46
2022/05/04 00:45:14;;;;;;;10.02;7.72;;;;;;;8.15;100.00;101283.19;5102763;28;20036;-50
2022/05/04 00:47:40;;;;;;;12.27;7.18;;;;;;;8.20;100.00;101283.56;5099240;28;20027;-51
2022/05/04 00:50:06;;;;;;;10.35;5.75;;;;;;;8.24;100.00;101284.91;5102232;28;20038;-49
2022/05/04 00:52:37;;;;;;;14.27;7.70;;;;;;;8.29;100.00;101272.91;5114147;28;20072;-53
2022/05/04 00:55:07;;;;;;;10.63;7.25;;;;;;;8.39;100.00;101278.09;5109874;28;20035;-48
2022/05/04 01:00:19;;;;;;;13.27;6.63;;;;;;;8.33;100.00;101281.31;5100056;28;20051;-52
2022/05/04 01:02:45;;;;;;;8.70;6.95;;;;;;;8.29;100.00;101283.47;5105499;28;20392;-50
2022/05/04 01:05:11;;;;;;;8.50;6.82;;;;;;;8.29;100.00;101282.63;5102686;28;20070;-52
2022/05/04 01:07:42;;;;;;;8.85;6.00;;;;;;;8.29;100.00;101282.63;5109658;28;20423;-48
2022/05/04 01:10:09;;;;;;;12.73;8.47;;;;;;;8.32;100.00;101282.31;5107423;28;20106;-46
2022/05/04 01:12:36;;;;;;;14.18;8.55;;;;;;;8.40;100.00;101281.56;5115118;28;20084;-49
2022/05/04 01:15:03;;;;;;;12.35;6.35;;;;;;;8.39;100.00;101287.78;5102891;28;20107;-48
2022/05/04 01:17:29;;;;;;;11.43;7.68;;;;;;;8.36;100.00;101275.72;5110393;28;20140;-51
2022/05/04 01:19:55;;;;;;;10.63;6.63;;;;;;;8.38;100.00;101273.75;5098936;28;20526;-48
2022/05/04 01:22:22;;;;;;;9.20;7.25;;;;;;;8.42;100.00;101269.03;5111505;28;20027;-49
2022/05/04 01:24:48;;;;;;;10.30;7.32;;;;;;;8.44;100.00;101265.25;5108459;28;20023;-49
2022/05/04 01:27:13;;;;;;;9.40;6.93;;;;;;;8.49;100.00;101259.47;5105933;28;20031;-50
2022/05/04 01:29:38;;;;;;;14.88;9.60;;;;;;;8.56;100.00;101263.13;5099324;28;20459;-49
2022/05/04 01:32:05;;;;;;;20.85;12.63;;;;;;;8.67;100.00;101262.03;5106112;28;20395;-53
2022/05/04 01:34:30;;;;;;;20.05;12.32;;;;;;;8.78;100.00;101261.75;5105905;28;20034;-49
2022/05/04 01:36:55;;;;;;;20.35;12.48;;;;;;;8.90;100.00;101249.03;5106287;28;20399;-50
2022/05/04 01:39:21;;;;;;;22.75;15.13;;;;;;;8.97;100.00;101249.25;5098064;28;20093;-48
2022/05/04 01:42:05;;;;;;;20.92;13.85;;;;;;;9.03;100.00;101251.22;5106893;28;20184;-49
2022/05/04 01:44:31;;;;;;;21.92;13.25;;;;;;;9.01;100.00;101246.13;5099636;28;20589;-48
2022/05/04 01:46:57;;;;;;;26.92;14.48;;;;;;;9.05;100.00;101238.66;5106684;28;20055;-46
2022/05/04 01:49:22;;;;;;;25.90;15.23;;;;;;;9.10;100.00;101246.94;5109891;27;20066;-51
2022/05/04 01:51:47;;;;;;;26.33;15.20;;;;;;;9.12;100.00;101244.97;5090495;28;20055;-49
2022/05/04 01:54:13;;;;;;;27.95;16.20;;;;;;;9.12;100.00;101243.16;5085784;28;20441;-47
2022/05/04 01:56:38;;;;;;;30.98;16.45;;;;;;;9.12;100.00;101243.16;5110352;28;20034;-52
2022/05/04 01:59:04;;;;;;;27.73;15.88;;;;;;;9.13;100.00;101246.63;5083466;28;20019;-52
2022/05/04 02:01:29;;;;;;;19.48;12.45;;;;;;;9.13;100.00;101241.31;5106993;28;20038;-47
2022/05/04 02:03:54;;;;;;;25.17;18.10;;;;;;;9.11;100.00;101240.66;5106193;28;20043;-48
2022/05/04 02:06:20;;;;;;;27.48;14.77;;;;;;;9.07;100.00;101239.34;5108259;28;20122;-46
2022/05/04 02:08:46;;;;;;;22.58;14.65;;;;;;;9.06;100.00;101237.66;5103258;28;20066;-50
2022/05/04 02:11:11;;;;;;;23.05;14.10;;;;;;;9.05;100.00;101238.66;5111815;28;20541;-50
2022/05/04 02:13:37;;;;;;;26.80;15.70;;;;;;;9.05;100.00;101241.31;5110075;28;20031;-51
2022/05/04 02:16:05;;;;;;;26.67;14.65;;;;;;;9.07;100.00;101247.28;5101185;28;20032;-46
2022/05/04 02:18:31;;;;;;;27.27;15.07;;;;;;;9.10;100.00;101237.19;5097017;28;20539;-48
2022/05/04 02:20:57;;;;;;;26.88;14.75;;;;;;;9.11;100.00;101240.66;5109141;28;20130;-51
2022/05/04 02:23:22;;;;;;;30.70;17.13;;;;;;;9.12;100.00;101239.69;5108547;28;20079;-48
2022/05/04 02:25:47;;;;;;;26.85;16.33;;;;;;;9.11;100.00;101238.00;5090940;28;20040;-52
2022/05/04 02:28:13;;;;;;;33.03;19.13;;;;;;;9.12;100.00;101237.03;5097318;28;20285;-50
2022/05/04 02:30:38;;;;;;;35.67;19.73;;;;;;;9.14;100.00;101237.72;5095504;28;20028;-50
2022/05/04 02:33:03;;;;;;;24.95;15.30;;;;;;;9.15;100.00;101234.06;5095958;28;20023;-48
2022/05/04 02:38:13;;;;;;;34.30;17.75;;;;;;;9.16;100.00;101233.91;5101497;28;20031;-45
2022/05/04 02:40:38;;;;;;;33.20;19.52;;;;;;;9.17;100.00;101234.72;5095750;28;20020;-49
2022/05/04 02:43:06;;;;;;;31.38;17.63;;;;;;;9.17;100.00;101232.91;5093675;28;20468;-47
2022/05/04 02:45:31;;;;;;;30.73;18.20;;;;;;;9.16;100.00;101217.19;5104624;28;20031;-46
2022/05/04 02:47:57;;;;;;;25.65;15.25;;;;;;;9.18;100.00;101221.31;5098248;28;20104;-51
2022/05/04 02:50:22;;;;;;;30.48;18.55;;;;;;;9.21;100.00;101214.06;5102517;28;20042;-50
2022/05/04 02:52:48;;;;;;;33.63;21.05;;;;;;;9.24;100.00;101219.88;5093569;28;20028;-47
2022/05/04 02:55:13;;;;;;;31.55;17.52;;;;;;;9.26;100.00;101206.44;5093821;28;20379;-46
2022/05/04 02:57:39;;;;;;;35.45;18.52;;;;;;;9.27;100.00;101216.06;5093078;28;20139;-47
2022/05/04 03:00:05;;;;;;;39.15;20.83;;;;;;;9.27;100.00;101216.88;5099206;28;20084;-47
2022/05/04 03:02:30;;;;;;;33.28;18.38;;;;;;;9.28;100.00;101215.88;5098897;28;20043;-46
2022/05/04 03:05:02;;;;;;;35.75;20.75;;;;;;;9.31;100.00;101212.91;5108254;28;20408;-49
2022/05/04 03:07:27;;;;;;;34.88;20.50;;;;;;;9.32;100.00;101213.72;5097347;28;20023;-45
2022/05/04 03:09:54;;;;;;;30.92;18.83;;;;;;;9.31;100.00;101209.44;5113125;28;20466;-50
2022/05/04 03:12:20;;;;;;;36.45;19.27;;;;;;;9.32;100.00;101200.47;5106183;28;20146;-49
2022/05/04 03:14:45;;;;;;;36.47;20.48;;;;;;;9.32;100.00;101206.63;5104816;28;20035;-49
2022/05/04 03:17:11;;;;;;;39.42;20.80;;;;;;;9.31;100.00;101199.66;5097807;28;20027;-47
2022/05/04 03:19:37;;;;;;;33.55;18.38;;;;;;;9.32;100.00;101203.97;5103034;28;20020;-48
2022/05/04 03:22:03;;;;;;;36.00;19.50;;;;;;;9.32;100.00;101198.69;5114729;28;20136;-51
2022/05/04 03:24:28;;;;;;;37.40;21.45;;;;;;;9.32;100.00;101196.03;5104954;28;20028;-47
2022/05/04 03:26:53;;;;;;;35.17;20.88;;;;;;;9.31;100.00;101191.72;5103568;28;20472;-46
2022/05/04 03:29:19;;;;;;;37.25;21.42;;;;;;;9.32;100.00;101193.41;5097376;28;20058;-48
2022/05/04 03:31:44;;;;;;;34.78;20.48;;;;;;;9.32;100.00;101198.69;5108459;28;20314;-46
2022/05/04 03:34:10;;;;;;;36.45;20.88;;;;;;;9.32;100.00;101190.75;5109552;28;20075;-45
2022/05/04 03:36:35;;;;;;;44.20;24.40;;;;;;;9.34;100.00;101195.84;5084110;28;20109;-45
2022/05/04 03:39:01;;;;;;;38.10;22.80;;;;;;;9.33;100.00;101191.56;5097798;28;20512;-48
2022/05/04 03:41:27;;;;;;;49.50;25.60;;;;;;;9.33;100.00;101187.09;5114588;28;20028;-50
2022/05/04 03:43:52;;;;;;;42.28;23.48;;;;;;;9.34;100.00;101187.91;5106689;28;20472;-45
2022/05/04 03:46:21;;;;;;;35.38;22.83;;;;;;;9.34;100.00;101183.44;5095672;28;20027;-49
2022/05/04 03:48:48;;;;;;;39.72;23.13;;;;;;;9.32;100.00;101185.47;5097552;28;20031;-47
2022/05/04 03:51:16;;;;;;;42.55;24.30;;;;;;;9.32;100.00;101179.31;5113499;28;20023;-49
2022/05/04 03:53:42;;;;;;;40.58;25.15;;;;;;;9.32;100.00;101182.81;5106312;28;20159;-50
2022/05/04 03:56:07;;;;;;;42.40;23.73;;;;;;;9.31;100.00;101173.19;5102159;28;20024;-48
2022/05/04 03:58:34;;;;;;;41.80;23.85;;;;;;;9.32;100.00;101182.81;5104454;28;20024;-45
2022/05/04 04:00:59;;;;;;;46.30;26.63;;;;;;;9.33;100.00;101181.81;5103063;28;20032;-48
2022/05/04 04:03:25;;;;;;;39.03;24.30;;;;;;;9.32;100.00;101185.47;5105037;28;20473;-51
2022/05/04 04:05:50;;;;;;;45.00;25.45;;;;;;;9.31;100.00;101189.09;5094354;28;20028;-46
2022/05/04 04:08:15;;;;;;;40.40;24.02;;;;;;;9.31;100.00;101178.50;5108591;28;20036;-46
2022/05/04 04:10:41;;;;;;;41.78;24.83;;;;;;;9.31;100.00;101182.97;5103848;28;20039;-46
2022/05/04 04:13:06;;;;;;;37.70;23.33;;;;;;;9.31;100.00;101191.72;5106276;27;20286;-48
2022/05/04 04:15:32;;;;;;;37.17;23.10;;;;;;;9.31;100.00;101188.25;5095174;28;20082;-48
2022/05/04 04:17:58;;;;;;;44.97;23.13;;;;;;;9.32;100.00;101195.19;5095293;28;20020;-47
2022/05/04 04:23:07;;;;;;;44.63;25.30;;;;;;;9.31;100.00;101183.78;5109349;28;20043;-49
2022/05/04 04:25:33;;;;;;;40.22;24.20;;;;;;;9.31;100.00;101182.97;5109742;28;20388;-47
2022/05/04 04:27:59;;;;;;;45.53;25.80;;;;;;;9.31;100.00;101182.97;5104256;28;20066;-45
2022/05/04 04:30:24;;;;;;;48.63;25.80;;;;;;;9.30;100.00;101182.16;5113596;28;20062;-45
2022/05/04 04:32:49;;;;;;;44.17;25.23;;;;;;;9.31;100.00;101182.97;5097572;28;20122;-48
2022/05/04 04:35:15;;;;;;;45.92;25.08;;;;;;;9.31;100.00;101180.31;5108418;28;20059;-49
2022/05/04 04:37:40;;;;;;;48.22;27.58;;;;;;;9.30;100.00;101184.78;5094716;28;20082;-48
2022/05/04 04:40:06;;;;;;;49.40;28.10;;;;;;;9.30;100.00;101187.44;5106892;28;20058;-47
2022/05/04 04:42:31;;;;;;;47.92;25.98;;;;;;;9.30;100.00;101186.63;5104066;28;20026;-49
2022/05/04 04:44:57;;;;;;;45.75;25.83;;;;;;;9.30;100.00;101187.44;5108590;28;20040;-48
2022/05/04 04:47:22;;;;;;;40.13;22.92;;;;;;;9.31;100.00;101190.91;5108556;28;20023;-45
2022/05/04 04:49:47;;;;;;;42.30;26.95;;;;;;;9.31;100.00;101183.78;5103802;28;20077;-49
2022/05/04 04:52:13;;;;;;;47.65;26.50;;;;;;;9.30;100.00;101182.16;5105689;28;20034;-48
2022/05/04 04:54:38;;;;;;;43.90;26.60;;;;;;;9.30;100.00;101187.44;5102480;28;20119;-50
2022/05/04 04:57:04;;;;;;;43.88;25.45;;;;;;;9.30;100.00;101189.25;5100647;28;20043;-48
2022/05/04 04:59:29;;;;;;;53.53;30.90;;;;;;;9.30;100.00;101187.44;5104820;28;20729;-47
2022/05/04 05:01:54;;;;;;;50.33;27.33;;;;;;;9.31;100.00;101190.91;5098105;28;20015;-48
2022/05/04 05:04:20;;;;;;;48.38;26.80;;;;;;;9.31;100.00;101194.38;5099368;28;20123;-44
2022/05/04 05:06:45;;;;;;;43.00;24.63;;;;;;;9.31;100.00;101189.09;5102958;28;20035;-51
2022/05/04 05:09:10;;;;;;;44.75;25.65;;;;;;;9.33;100.00;101192.41;5108540;28;20456;-47
2022/05/04 05:11:35;;;;;;;40.17;23.88;;;;;;;9.35;100.00;101190.41;5098735;28;20085;-47
2022/05/04 05:16:45;;;;;;;45.53;26.90;;;;;;;9.41;100.00;101190.75;5101785;28;20436;-48
2022/05/04 05:19:10;;;;;;;34.65;21.33;;;;;;;9.43;100.00;101199.34;5098734;28;20031;-46
2022/05/04 05:21:35;;;;;;;36.85;22.15;;;;;;;9.45;100.00;101190.25;5101650;28;20427;-50
2022/05/04 05:24:00;;;;;;;50.08;29.13;;;;;;;9.48;100.00;101195.22;5097652;28;20111;-47
2022/05/04 05:26:26;;;;;;;50.00;28.38;;;;;;;9.50;100.00;101195.03;5098384;28;20024;-49
2022/05/04 05:28:52;;;;;;;43.83;24.98;;;;;;;9.52;100.00;101196.50;5089209;28;20023;-49
2022/05/04 05:31:18;;;;;;;39.35;23.92;;;;;;;9.56;100.00;101202.31;5098496;28;20034;-45
2022/05/04 05:33:45;;;;;;;59.03;31.58;;;;;;;9.57;100.00;101199.50;5099279;28;20027;-47
2022/05/04 05:36:11;;;;;;;44.60;27.05;;;;;;;9.59;100.00;101197.50;5095611;28;20048;-47
2022/05/04 05:38:36;;;;;;;45.45;25.67;;;;;;;9.62;100.00;101206.94;5094852;28;20169;-49
2022/05/04 05:41:01;;;;;;;47.17;26.63;;;;;;;9.64;100.00;101204.97;5095053;28;20036;-46
2022/05/04 05:43:28;;;;;;;43.88;25.67;;;;;;;9.66;100.00;101202.97;5098578;28;20024;-48
2022/05/04 05:45:53;;;;;;;41.28;25.92;;;;;;;9.67;100.00;101212.56;5094578;28;20606;-47
2022/05/04 05:48:20;;;;;;;45.20;25.80;;;;;;;9.69;100.00;101200.00;5092833;28;20106;-47
2022/05/04 05:50:46;;;;;;;33.45;21.30;;;;;;;9.74;100.00;101205.59;5097160;28;20365;-47
2022/05/04 05:53:14;;;;;;;40.30;24.33;;;;;;;9.76;100.00;101203.63;5091233;28;20027;-48
2022/05/04 05:55:40;;;;;;;44.75;26.75;;;;;;;9.80;100.00;101202.28;5096742;28;20447;-48
2022/05/04 05:58:05;;;;;;;39.15;23.25;;;;;;;9.83;100.00;101209.91;5095443;28;20032;-46
2022/05/04 06:00:31;;;;;;;38.65;22.05;;;;;;;9.88;100.00;101209.38;5106587;28;20024;-46
2022/05/04 06:02:56;;;;;;;35.75;20.95;;;;;;;9.91;100.00;101206.38;5100394;28;20031;-46
2022/05/04 06:05:21;;;;;;;43.60;25.77;;;;;;;9.94;100.00;101199.94;5102712;28;20600;-47
2022/05/04 06:07:48;;;;;;;38.90;23.08;;;;;;;9.98;100.00;101198.59;5096749;28;20051;-48
2022/05/04 06:10:14;;;;;;;43.28;23.10;;;;;;;10.01;100.00;101206.22;5094316;28;20528;-48
2022/05/04 06:12:40;;;;;;;41.72;23.63;;;;;;;10.05;100.00;101203.06;5094151;28;20024;-50
2022/05/04 06:15:08;;;;;;;40.83;23.63;;;;;;;10.11;100.00;101206.03;5095920;28;20492;-49
2022/05/04 06:17:34;;;;;;;43.20;25.40;;;;;;;10.14;100.00;101198.56;5091067;28;20028;-49
2022/05/04 06:19:59;;;;;;;46.67;26.05;;;;;;;10.18;100.00;101202.53;5090539;28;20039;-46
2022/05/04 06:22:24;;;;;;;46.05;26.10;;;;;;;10.24;100.00;101211.63;5092600;28;20043;-51
2022/05/04 06:24:50;;;;;;;40.45;24.85;;;;;;;10.31;100.00;101209.97;5088028;28;20032;-47
2022/05/04 06:27:15;;;;;;;43.72;24.52;;;;;;;10.36;100.00;101209.47;5091029;28;20526;-47
2022/05/04 06:35:08;;;;;;;33.75;20.73;;;;;;;10.56;100.00;101213.34;5090560;28;20084;-51
2022/05/04 06:37:34;;;;;;;37.92;21.73;;;;;;;10.64;100.00;101208.00;5091136;28;20460;-46
2022/05/04 06:39:59;;;;;;;41.80;23.80;;;;;;;10.71;100.00;101205.47;5095164;28;20032;-49
2022/05/04 06:42:24;;;;;;;35.13;22.10;;;;;;;10.75;100.00;101203.31;5099474;28;20052;-53
2022/05/04 06:44:50;;;;;;;40.97;24.13;;;;;;;10.80;100.00;101199.13;5094760;28;20042;-49
2022/05/04 06:47:15;;;;;;;55.47;31.95;;;;;;;10.89;100.00;101199.91;5099666;28;20111;-48
2022/05/04 06:49:40;;;;;;;43.67;26.60;;;;;;;10.98;100.00;101195.38;5094850;28;20071;-50
2022/05/04 06:52:07;;;;;;;39.97;24.15;;;;;;;11.01;100.00;101192.38;5095507;28;20113;-50
2022/05/04 06:54:32;;;;;;;30.13;19.05;;;;;;;11.08;100.00;101194.13;5093017;28;20445;-48
2022/05/04 06:56:57;;;;;;;31.10;19.85;;;;;;;11.18;100.00;101195.72;5101567;28;20020;-48
2022/05/04 06:59:23;;;;;;;36.42;22.98;;;;;;;11.27;100.00;101195.47;5097559;28;20046;-46
2022/05/04 07:01:48;;;;;;;28.77;18.17;;;;;;;11.35;100.00;101197.25;5096368;28;20396;-49
2022/05/04 07:04:14;;;;;;;34.70;22.90;;;;;;;11.43;100.00;101191.88;5092411;28;20028;-49
2022/05/04 07:06:39;;;;;;;38.33;22.08;;;;;;;11.53;100.00;101191.63;5091895;28;20027;-49
2022/05/04 07:09:04;;;;;;;32.58;19.23;;;;;;;11.60;100.00;101187.25;5091745;28;20035;-50
2022/05/04 07:11:30;;;;;;;35.78;20.60;;;;;;;11.58;100.00;101190.06;5095017;28;20031;-49
2022/05/04 07:13:55;;;;;;;32.22;20.10;;;;;;;11.65;100.00;101192.84;5086570;28;20088;-50
2022/05/04 07:16:21;;;;;;;30.75;18.77;;;;;;;11.76;100.00;101188.91;5097876;28;20039;-47
2022/05/04 07:18:46;;;;;;;33.58;20.48;;;;;;;11.89;100.00;101183.81;5094198;28;20470;-47
2022/05/04 07:21:11;;;;;;;31.98;20.90;;;;;;;12.02;100.00;101179.72;5102767;28;20016;-48
2022/05/04 07:23:37;;;;;;;30.27;17.58;;;;;;;12.08;100.00;101181.63;5098373;28;20143;-47
2022/05/04 07:26:02;;;;;;;34.10;19.42;;;;;;;12.12;100.00;101182.91;5103113;28;20028;-50
2022/05/04 07:28:27;;;;;;;31.38;21.15;;;;;;;12.16;100.00;101178.91;5102821;28;20020;-53
2022/05/04 07:30:53;;;;;;;31.25;19.33;;;;;;;12.17;100.00;101183.19;5103043;28;20035;-50
2022/05/04 07:33:18;;;;;;;30.67;19.10;;;;;;;12.20;100.00;101188.13;5098200;28;20035;-50
2022/05/04 07:35:44;;;;;;;35.97;20.65;;;;;;;12.26;100.00;101186.56;5087032;28;20145;-48
2022/05/04 07:38:09;;;;;;;32.65;20.35;;;;;;;12.30;100.00;101182.53;5095960;28;20038;-48
2022/05/04 07:43:18;;;;;;;30.67;20.10;;;;;;;12.33;100.00;101180.31;5102323;28;20393;-52
2022/05/04 07:45:44;;;;;;;32.65;20.58;;;;;;;12.39;100.00;101182.25;5102014;28;20027;-49
2022/05/04 07:48:09;;;;;;;30.48;18.67;;;;;;;12.40;100.00;101185.75;5079749;28;20371;-48
2022/05/04 07:50:35;;;;;;;31.05;18.45;;;;;;;12.41;100.00;101184.72;5089186;28;20100;-48
2022/05/04 07:53:02;;;;;;;30.52;16.20;;;;;;;12.50;100.00;101185.47;5105143;28;20559;-47
2022/05/04 07:55:27;;;;;;;25.40;15.48;;;;;;;12.53;100.00;101179.75;5104062;28;20031;-47
2022/05/04 07:57:52;;;;;;;28.30;17.30;;;;;;;12.60;100.00;101178.81;5103869;28;20027;-48
2022/05/04 08:05:46;;;;;;;27.55;15.68;;;;;;;12.52;100.00;101170.09;5101150;28;20034;-52
2022/05/04 08:08:11;;;;;;;21.20;13.50;;;;;;;12.48;100.00;101172.31;5096087;28;20384;-50
2022/05/04 08:10:37;;;;;;;18.77;13.05;;;;;;;12.50;100.00;101172.16;5085492;28;20460;-52
2022/05/04 08:13:02;;;;;;;21.02;13.80;;;;;;;12.44;100.00;101161.25;5101739;28;20070;-53
2022/05/04 08:15:30;;;;;;;18.45;11.88;;;;;;;12.59;100.00;101168.34;5103260;28;20742;-49
2022/05/04 08:17:57;;;;;;;24.33;14.80;;;;;;;12.77;100.00;101171.41;5097043;28;20138;-50
2022/05/04 08:20:24;;;;;;;25.00;15.98;;;;;;;12.84;100.00;101160.84;5104880;28;20617;-52
2022/05/04 08:22:49;;;;;;;24.70;13.98;;;;;;;12.97;100.00;101153.00;5098553;28;20113;-47
2022/05/04 08:25:17;;;;;;;21.38;13.60;;;;;;;13.25;100.00;101147.72;5103067;28;20118;-47
2022/05/04 08:27:43;;;;;;;23.13;13.93;;;;;;;13.43;100.00;101147.28;5103980;28;20039;-52
2022/05/04 08:30:08;;;;;;;19.77;13.90;;;;;;;13.55;100.00;101149.41;5091190;28;20035;-50
2022/05/04 08:32:34;;;;;;;20.95;14.10;;;;;;;13.70;100.00;101142.94;5101583;28;20385;-47
2022/05/04 08:34:59;;;;;;;25.00;16.10;;;;;;;13.90;100.00;101150.25;5088228;28;20143;-46
2022/05/04 08:37:29;;;;;;;26.33;16.80;;;;;;;14.15;100.00;101150.59;5105085;28;20034;-48
2022/05/04 08:39:55;;;;;;;21.73;12.55;;;;;;;14.23;100.00;101146.94;5105112;28;20089;-48
2022/05/04 08:42:21;;;;;;;22.60;14.45;;;;;;;14.25;100.00;101158.22;5101178;28;20035;-50
2022/05/04 08:44:56;;;;;;;21.02;14.23;;;;;;;14.28;100.00;101157.84;5103166;28;20498;-53
2022/05/04 08:47:22;;;;;;;21.88;13.00;;;;;;;14.24;100.00;101157.38;5100417;28;20020;-49
2022/05/04 08:49:49;;;;;;;22.88;14.43;;;;;;;13.94;100.00;101149.66;5102790;28;20558;-51
2022/05/04 08:52:15;;;;;;;22.90;14.73;;;;;;;13.70;100.00;101147.47;5104926;28;20508;-50
2022/05/04 08:54:43;;;;;;;23.60;14.88;;;;;;;13.55;100.00;101160.06;5087164;28;20480;-46
2022/05/04 08:57:08;;;;;;;22.30;14.15;;;;;;;13.44;100.00;101162.22;5089866;28;20117;-48
2022/05/04 08:59:34;;;;;;;16.23;11.07;;;;;;;13.41;100.00;101159.16;5092574;28;20036;-51
2022/05/04 09:01:59;;;;;;;18.63;12.52;;;;;;;13.27;100.00;101159.03;5096774;28;20036;-51
2022/05/04 09:04:25;;;;;;;19.50;13.55;;;;;;;13.11;100.00;101159.25;5101614;28;20023;-49
2022/05/04 09:06:50;;;;;;;19.67;12.52;;;;;;;13.01;100.00;101166.75;5103650;28;20143;-47
2022/05/04 09:09:16;;;;;;;19.13;13.10;;;;;;;12.91;100.00;101168.88;5104247;28;20026;-47
2022/05/04 09:11:44;;;;;;;22.20;14.32;;;;;;;12.84;100.00;101177.66;5104572;28;20043;-47
2022/05/04 09:14:13;;;;;;;14.90;9.80;;;;;;;12.75;100.00;101178.78;5102744;28;20044;-52
2022/05/04 09:16:40;;;;;;;18.73;11.45;;;;;;;12.80;100.00;101175.53;5102280;28;20106;-50
2022/05/04 09:19:06;;;;;;;14.40;10.55;;;;;;;12.75;100.00;101170.81;5103739;28;20455;-51
2022/05/04 09:21:32;;;;;;;17.75;12.07;;;;;;;12.80;100.00;101180.88;5093339;28;20031;-52
2022/05/04 09:23:57;;;;;;;16.20;11.43;;;;;;;12.81;100.00;101169.22;5101590;28;20157;-49
2022/05/04 09:26:23;;;;;;;16.27;10.68;;;;;;;12.84;100.00;101164.34;5101168;28;20031;-51
2022/05/04 09:28:57;;;;;;;15.85;9.75;;;;;;;13.01;100.00;101162.25;5094911;28;20036;-48
2022/05/04 09:31:24;;;;;;;13.88;9.77;;;;;;;13.14;100.00;101158.91;5103833;28;20031;-50
2022/05/04 09:34:00;;;;;;;19.15;11.20;;;;;;;13.27;100.00;101151.06;5095316;28;20282;-48
2022/05/04 09:44:54;;;;;;;14.80;9.50;;;;;;;13.38;100.00;101151.53;5089149;28;20122;-52
2022/05/04 09:45:10;;;;;;;15.30;9.20;;;;;;;13.88;100.00;101137.09;5107314;28;20046;-50
2022/05/04 09:47:40;;;;;;;12.40;7.65;;;;;;;14.08;100.00;101142.56;5107110;28;20024;-49
2022/05/04 09:50:06;;;;;;;14.73;9.40;;;;;;;14.12;100.00;101141.16;5108368;28;20376;-46
2022/05/04 09:52:49;;;;;;;17.98;9.52;;;;;;;14.11;100.00;101136.81;5083646;28;20054;-50
2022/05/04 09:55:25;;;;;;;13.15;8.18;;;;;;;14.04;100.00;101143.94;5102853;28;20084;-51
2022/05/04 09:57:53;;;;;;;11.98;8.32;;;;;;;13.95;100.00;101145.16;5108939;28;20039;-48
2022/05/04 10:00:21;;;;;;;14.85;9.88;;;;;;;13.84;100.00;101143.88;5107698;28;20031;-53
2022/05/04 10:02:51;;;;;;;11.57;8.05;;;;;;;13.88;100.00;101154.94;5102394;28;20441;-49
2022/05/04 12:25:54;;;;;;;7.45;4.30;;;;;;;18.33;100.00;101033.81;5191903;27;20379;-51
2022/05/04 12:28:19;;;;;;;5.38;3.95;;;;;;;18.21;100.00;101036.47;5170335;27;20118;-50
2022/05/04 12:33:32;;;;;;;5.47;4.28;;;;;;;17.70;100.00;101033.16;5181337;27;20044;-53
2022/05/04 12:36:00;;;;;;;5.28;3.90;;;;;;;17.67;100.00;101029.06;5188226;27;20018;-51
2022/05/04 12:38:27;;;;;;;4.10;2.75;;;;;;;17.41;100.00;101030.19;5180958;27;20048;-49
2022/05/04 12:40:52;;;;;;;3.13;2.83;;;;;;;17.33;100.00;101022.44;5183240;27;20025;-50
2022/05/04 12:43:18;;;;;;;6.10;3.00;;;;;;;17.31;100.00;101027.19;5177755;27;20116;-52
2022/05/04 12:45:44;;;;;;;2.60;2.40;;;;;;;17.45;100.00;101025.22;5156329;27;20024;-47
2022/05/04 12:48:10;;;;;;;2.53;2.33;;;;;;;17.85;100.00;101035.50;5177951;27;20774;-47
2022/05/04 12:50:37;;;;;;;1.58;1.48;;;;;;;18.14;100.00;101023.13;5177955;27;20030;-46
2022/05/04 12:53:03;;;;;;;2.10;1.67;;;;;;;18.31;100.00;101021.44;5178464;27;20027;-51
2022/05/04 12:58:14;;;;;;;2.42;2.22;;;;;;;17.66;100.00;101024.75;5180806;27;20029;-52
2022/05/04 13:00:40;;;;;;;1.98;1.80;;;;;;;17.54;100.00;101026.53;5178034;27;20010;-53
2022/05/04 13:03:12;;;;;;;1.98;1.50;;;;;;;17.83;100.00;101030.34;5184618;27;20392;-50
2022/05/04 13:05:39;;;;;;;4.10;1.83;;;;;;;18.07;100.00;101020.56;5185616;27;20038;-51
2022/05/04 13:08:05;;;;;;;1.95;1.65;;;;;;;17.53;100.00;101035.63;5179135;27;20029;-53
2022/05/04 13:10:31;;;;;;;2.75;2.55;;;;;;;17.25;100.00;101038.81;5174060;27;20033;-48
2022/05/04 13:12:59;;;;;;;2.08;1.38;;;;;;;17.13;100.00;101030.69;5182775;27;20037;-49
2022/05/04 13:15:25;;;;;;;2.03;1.80;;;;;;;17.34;100.00;101036.66;5168999;27;20030;-43
2022/05/04 13:17:51;;;;;;;2.58;1.58;;;;;;;17.71;100.00;101031.28;5186489;27;20026;-46
2022/05/04 13:20:18;;;;;;;1.17;1.08;;;;;;;17.78;100.00;101032.03;5187652;27;20469;-48
2022/05/04 13:22:43;;;;;;;1.25;0.70;;;;;;;17.71;100.00;101028.59;5181893;27;20030;-50
2022/05/04 13:25:10;;;;;;;3.05;1.00;;;;;;;17.59;100.00;101032.06;5177359;27;20147;-48
2022/05/04 13:27:36;;;;;;;1.20;0.50;;;;;;;17.56;100.00;101024.47;5172137;27;20537;-49
2022/05/04 13:30:02;;;;;;;3.65;0.98;;;;;;;17.36;100.00;101022.00;5169227;27;20437;-46
2022/05/04 13:32:28;;;;;;;0.82;0.70;;;;;;;17.17;100.00;101020.34;5160553;27;20256;-48
2022/05/04 13:34:53;;;;;;;1.60;0.60;;;;;;;17.06;100.00;101019.19;5160575;27;20023;-46
2022/05/04 13:37:18;;;;;;;1.05;0.90;;;;;;;16.85;100.00;101027.63;5162622;27;20379;-53
2022/05/04 13:39:43;;;;;;;0.95;0.95;;;;;;;16.61;100.00;101019.34;5168803;27;20321;-48
2022/05/04 13:42:09;;;;;;;0.63;0.63;;;;;;;16.54;100.00;101019.41;5158288;27;20130;-50
2022/05/04 13:44:35;;;;;;;1.40;0.70;;;;;;;16.49;100.00;101016.53;5150565;27;20034;-54
2022/05/04 13:47:00;;;;;;;1.85;0.55;;;;;;;16.69;100.00;101020.94;5166032;27;20525;-53
2022/05/04 13:49:25;;;;;;;1.00;0.77;;;;;;;16.90;100.00;101014.41;5169547;27;20031;-51
2022/05/04 13:54:34;;;;;;;2.47;1.17;;;;;;;17.38;100.00;101016.41;5162549;27;20037;-49
2022/05/04 13:57:00;;;;;;;0.95;0.88;;;;;;;17.47;100.00;100998.97;5160186;27;20034;-45
2022/05/04 13:59:26;;;;;;;1.77;0.90;;;;;;;17.52;100.00;101001.81;5167413;27;20022;-48
2022/05/04 14:01:52;;;;;;;0.40;0.38;;;;;;;17.42;100.00;101001.50;5164297;27;20419;-49
2022/05/04 14:04:17;;;;;;;0.93;0.60;;;;;;;17.48;100.00;100997.97;5164704;27;20036;-53